createdAt,value
2022-12-25T00:01:44.276Z,13.95
2022-12-25T00:04:11.617Z,13.13
2022-12-25T00:06:39.015Z,7.65
2022-12-25T00:09:06.359Z,11.57
2022-12-25T00:11:33.608Z,8.35
2022-12-25T00:14:00.777Z,14.95
2022-12-25T00:16:28.075Z,10.60
2022-12-25T00:18:56.348Z,11.32
2022-12-25T00:21:23.672Z,8.35
2022-12-25T00:23:58.314Z,10.27
2022-12-25T00:26:26.942Z,10.75
2022-12-25T00:28:56.476Z,11.60
2022-12-25T00:33:52.560Z,10.65
2022-12-25T00:36:22.449Z,14.98
2022-12-25T00:38:49.733Z,9.63
2022-12-25T00:41:39.257Z,12.32
2022-12-25T00:46:34.744Z,9.30
2022-12-25T00:49:02.483Z,8.60
2022-12-25T00:51:29.670Z,11.63
2022-12-25T00:53:56.921Z,9.88
2022-12-25T00:56:24.963Z,11.77
2022-12-25T00:58:52.951Z,11.20
2022-12-25T01:01:20.374Z,8.43
2022-12-25T01:03:47.758Z,12.50
2022-12-25T01:06:14.852Z,10.10
2022-12-25T01:09:03.015Z,13.65
2022-12-25T01:11:31.687Z,8.57
2022-12-25T01:13:59.014Z,9.93
2022-12-25T01:16:26.697Z,11.05
2022-12-25T01:18:54.026Z,13.30
2022-12-25T01:21:22.236Z,10.85
2022-12-25T01:23:51.917Z,12.38
2022-12-25T01:26:23.872Z,11.32
2022-12-25T01:28:52.036Z,11.50
2022-12-25T01:31:23.257Z,12.25
2022-12-25T01:33:50.982Z,8.00
2022-12-25T01:36:22.694Z,12.13
2022-12-25T01:38:51.963Z,10.43
2022-12-25T01:41:22.717Z,9.68
2022-12-25T01:44:19.205Z,11.68
2022-12-25T01:46:46.311Z,10.00
2022-12-25T01:49:24.536Z,15.10
2022-12-25T01:52:02.077Z,8.15
2022-12-25T01:54:37.520Z,12.40
2022-12-25T01:57:11.451Z,10.80
2022-12-25T01:59:39.142Z,12.23
2022-12-25T02:02:06.791Z,11.45
2022-12-25T02:05:11.591Z,11.07
2022-12-25T02:07:40.693Z,12.15
2022-12-25T02:10:10.994Z,12.05
2022-12-25T02:12:40.665Z,12.13
2022-12-25T02:15:21.089Z,17.20
2022-12-25T02:18:20.027Z,9.40
2022-12-25T02:21:16.078Z,10.50
2022-12-25T02:24:04.924Z,12.23
2022-12-25T02:26:43.842Z,15.65
2022-12-25T02:29:49.285Z,9.27
2022-12-25T02:32:30.631Z,12.27
2022-12-25T02:35:30.620Z,14.38
2022-12-25T02:38:17.935Z,10.85
2022-12-25T02:40:57.249Z,9.02
2022-12-25T02:43:56.639Z,9.07
2022-12-25T02:49:39.767Z,13.63
2022-12-25T02:52:45.454Z,11.65
2022-12-25T02:55:42.452Z,19.45
2022-12-25T02:58:35.951Z,12.77
2022-12-25T03:01:39.102Z,17.30
2022-12-25T03:04:33.175Z,12.50
2022-12-25T03:07:15.638Z,27.02
2022-12-25T03:10:20.926Z,16.83
2022-12-25T03:13:04.151Z,16.52
2022-12-25T03:15:52.522Z,14.50
2022-12-25T03:18:23.748Z,14.45
2022-12-25T03:21:11.304Z,16.85
2022-12-25T03:24:02.148Z,18.23
2022-12-25T03:26:48.242Z,14.73
2022-12-25T03:29:35.385Z,18.27
2022-12-25T03:32:19.529Z,22.00
2022-12-25T03:35:22.925Z,17.90
2022-12-25T03:39:37.837Z,21.75
2022-12-25T03:42:25.184Z,15.23
2022-12-25T03:45:39.636Z,16.13
2022-12-25T03:48:27.584Z,12.38
2022-12-25T03:51:27.868Z,11.93
2022-12-25T03:54:18.854Z,15.57
2022-12-25T03:57:05.311Z,11.88
2022-12-25T03:59:51.330Z,10.80
2022-12-25T04:02:37.447Z,14.05
2022-12-25T04:05:23.836Z,8.82
2022-12-25T04:08:09.645Z,14.32
2022-12-25T04:10:55.565Z,11.38
2022-12-25T04:13:41.490Z,11.02
2022-12-25T04:16:27.470Z,11.00
2022-12-25T04:19:13.120Z,14.20
2022-12-25T04:21:59.058Z,11.27
2022-12-25T04:24:44.938Z,10.00
2022-12-25T04:27:31.004Z,9.18
2022-12-25T04:30:16.867Z,9.27
2022-12-25T04:33:02.967Z,9.18
2022-12-25T04:35:49.027Z,9.52
2022-12-25T04:38:20.189Z,8.90
2022-12-25T04:40:47.395Z,10.93
2022-12-25T04:43:14.623Z,7.53
2022-12-25T04:45:41.958Z,10.95
2022-12-25T04:48:09.070Z,12.38
2022-12-25T04:50:36.234Z,9.65
2022-12-25T04:53:03.373Z,6.95
2022-12-25T04:55:30.498Z,9.40
2022-12-25T04:57:57.632Z,8.65
2022-12-25T05:00:24.748Z,9.90
2022-12-25T05:02:52.054Z,12.70
2022-12-25T05:05:19.313Z,17.17
2022-12-25T05:07:46.442Z,11.57
2022-12-25T05:10:14.577Z,13.93
2022-12-25T05:12:41.844Z,10.45
2022-12-25T05:15:09.788Z,13.75
2022-12-25T05:17:37.083Z,12.18
2022-12-25T05:20:05.937Z,9.45
2022-12-25T05:22:33.306Z,12.80
2022-12-25T05:25:00.462Z,7.35
2022-12-25T05:27:27.834Z,10.95
2022-12-25T05:29:55.070Z,11.43
2022-12-25T05:32:22.219Z,12.05
2022-12-25T05:34:49.396Z,8.93
2022-12-25T05:37:16.488Z,11.52
2022-12-25T05:39:43.605Z,11.40
2022-12-25T05:42:10.782Z,10.63
2022-12-25T05:44:37.992Z,17.45
2022-12-25T05:47:05.189Z,14.27
2022-12-25T05:49:32.372Z,10.98
2022-12-25T05:51:59.454Z,15.05
2022-12-25T05:54:26.765Z,14.32
2022-12-25T05:56:53.953Z,15.45
2022-12-25T05:59:21.157Z,13.82
2022-12-25T06:01:48.443Z,16.63
2022-12-25T06:04:15.847Z,18.35
2022-12-25T06:06:43.525Z,12.90
2022-12-25T06:09:12.836Z,16.10
2022-12-25T06:11:40.807Z,12.00
2022-12-25T06:14:12.901Z,8.95
2022-12-25T06:16:40.279Z,10.35
2022-12-25T06:19:07.482Z,7.85
2022-12-25T06:21:34.771Z,9.80
2022-12-25T06:24:02.227Z,10.73
2022-12-25T06:26:29.629Z,14.18
2022-12-25T06:28:56.786Z,10.40
2022-12-25T06:31:24.598Z,9.30
2022-12-25T06:33:51.978Z,14.10
2022-12-25T06:36:25.712Z,14.30
2022-12-25T06:38:53.759Z,13.00
2022-12-25T06:41:27.162Z,10.07
2022-12-25T06:43:57.843Z,14.82
2022-12-25T06:46:28.223Z,16.83
2022-12-25T06:48:57.200Z,13.73
2022-12-25T06:51:28.465Z,21.55
2022-12-25T06:53:57.572Z,11.05
2022-12-25T06:56:27.645Z,15.80
2022-12-25T06:58:58.578Z,15.15
2022-12-25T07:01:44.391Z,18.55
2022-12-25T07:04:19.289Z,16.02
2022-12-25T07:06:46.729Z,17.98
2022-12-25T07:09:13.891Z,28.23
2022-12-25T07:11:41.021Z,27.83
2022-12-25T07:14:23.244Z,19.15
2022-12-25T07:16:51.443Z,19.73
2022-12-25T07:19:18.727Z,24.88
2022-12-25T07:21:46.682Z,20.05
2022-12-25T07:24:21.745Z,13.15
2022-12-25T07:26:50.339Z,32.83
2022-12-25T07:29:19.077Z,40.90
2022-12-25T07:31:47.085Z,52.78
2022-12-25T07:34:16.362Z,39.78
2022-12-25T07:36:43.559Z,30.98
2022-12-25T07:39:11.758Z,28.35
2022-12-25T07:41:39.656Z,28.90
2022-12-25T07:44:15.382Z,36.80
2022-12-25T07:46:42.945Z,44.15
2022-12-25T07:49:10.947Z,41.03
2022-12-25T07:51:38.049Z,42.38
2022-12-25T07:54:05.360Z,30.95
2022-12-25T07:56:32.618Z,26.55
2022-12-25T07:58:59.754Z,25.98
2022-12-25T08:01:27.703Z,19.10
2022-12-25T08:04:01.038Z,15.00
2022-12-25T08:06:33.857Z,15.00
2022-12-25T08:09:11.469Z,12.32
2022-12-25T08:11:39.387Z,11.05
2022-12-25T08:14:08.035Z,9.88
2022-12-25T08:16:35.799Z,7.22
2022-12-25T08:19:03.073Z,9.35
2022-12-25T08:21:30.254Z,7.63
2022-12-25T08:23:57.522Z,12.43
2022-12-25T08:26:24.636Z,8.25
2022-12-25T08:28:51.863Z,5.93
2022-12-25T08:31:29.193Z,10.18
2022-12-25T08:33:58.486Z,11.90
2022-12-25T08:36:26.552Z,13.10
2022-12-25T08:39:00.286Z,8.00
2022-12-25T08:41:31.151Z,11.80
2022-12-25T08:43:58.468Z,8.65
2022-12-25T08:46:25.665Z,11.00
2022-12-25T08:48:52.896Z,6.78
2022-12-25T08:51:23.300Z,6.15
2022-12-25T08:53:52.531Z,4.65
2022-12-25T08:56:20.574Z,6.47
2022-12-25T08:58:47.740Z,10.00
2022-12-25T09:01:15.082Z,4.63
2022-12-25T09:03:42.934Z,6.50
2022-12-25T09:06:13.894Z,10.13
2022-12-25T09:08:48.104Z,6.75
2022-12-25T09:11:19.219Z,12.40
2022-12-25T09:13:47.809Z,7.80
2022-12-25T09:16:19.971Z,14.00
2022-12-25T09:18:47.842Z,5.30
2022-12-25T09:21:16.171Z,6.90
2022-12-25T09:23:43.869Z,4.35
2022-12-25T09:26:14.564Z,6.07
2022-12-25T09:28:48.481Z,4.07
2022-12-25T09:31:19.028Z,7.95
2022-12-25T09:33:49.611Z,4.63
2022-12-25T09:36:17.299Z,11.20
2022-12-25T09:38:44.451Z,11.20
2022-12-25T09:41:35.769Z,8.23
2022-12-25T09:44:27.452Z,6.60
2022-12-25T09:47:22.608Z,16.40
2022-12-25T09:50:09.909Z,7.65
2022-12-25T09:53:06.743Z,11.55
2022-12-25T09:55:40.756Z,27.58
2022-12-25T09:58:12.887Z,18.02
2022-12-25T10:00:46.243Z,14.88
2022-12-25T10:04:02.413Z,13.15
2022-12-25T10:06:49.439Z,17.35
2022-12-25T10:10:03.305Z,11.57
2022-12-25T10:12:43.154Z,14.02
2022-12-25T10:15:40.425Z,13.45
2022-12-25T10:18:38.470Z,20.10
2022-12-25T10:21:13.223Z,20.98
2022-12-25T10:23:47.531Z,18.17
2022-12-25T10:26:24.518Z,14.38
2022-12-25T10:29:16.616Z,12.40
2022-12-25T10:31:51.526Z,26.88
2022-12-25T10:34:18.929Z,18.90
2022-12-25T10:36:46.338Z,10.60
2022-12-25T10:39:25.529Z,13.95
2022-12-25T10:42:45.085Z,13.55
2022-12-25T10:45:12.449Z,14.95
2022-12-25T10:47:44.449Z,11.48
2022-12-25T10:50:24.939Z,10.27
2022-12-25T10:53:05.675Z,10.77
2022-12-25T10:55:33.238Z,10.70
2022-12-25T10:58:01.634Z,5.15
2022-12-25T11:00:31.924Z,5.95
2022-12-25T11:02:59.743Z,10.18
2022-12-25T11:05:33.659Z,6.95
2022-12-25T11:08:03.112Z,10.60
2022-12-25T11:13:24.557Z,7.27
2022-12-25T11:16:11.225Z,3.35
2022-12-25T11:18:48.738Z,6.53
2022-12-25T11:21:19.287Z,17.55
2022-12-25T11:23:49.841Z,13.15
2022-12-25T11:26:18.246Z,13.57
2022-12-25T11:28:48.318Z,17.48
2022-12-25T11:31:23.564Z,10.90
2022-12-25T11:34:31.956Z,8.85
2022-12-25T11:37:00.866Z,8.90
2022-12-25T11:39:35.831Z,2.25
2022-12-25T11:42:12.193Z,22.77
2022-12-25T11:45:24.360Z,27.48
2022-12-25T11:48:01.745Z,19.67
2022-12-25T11:50:35.633Z,18.92
2022-12-25T11:53:09.960Z,11.13
2022-12-25T11:55:40.569Z,10.48
2022-12-25T11:58:30.950Z,17.40
2022-12-25T12:01:02.305Z,11.68
2022-12-25T12:03:40.043Z,12.55
2022-12-25T12:06:31.710Z,20.35
2022-12-25T12:09:29.595Z,6.35
2022-12-25T12:12:49.321Z,23.85
2022-12-25T12:15:43.351Z,16.15
2022-12-25T12:18:25.530Z,17.65
2022-12-25T12:21:20.011Z,31.30
2022-12-25T12:24:08.849Z,6.22
2022-12-25T12:26:40.366Z,6.07
2022-12-25T12:29:27.623Z,8.88
2022-12-25T12:32:01.088Z,8.57
2022-12-25T12:34:44.517Z,7.80
2022-12-25T12:37:31.530Z,4.70
2022-12-25T12:39:59.144Z,3.00
2022-12-25T12:42:31.786Z,8.77
2022-12-25T12:45:14.784Z,11.63
2022-12-25T12:47:51.089Z,10.05
2022-12-25T12:50:34.525Z,8.18
2022-12-25T12:53:22.820Z,12.60
2022-12-25T12:55:51.537Z,24.70
2022-12-25T12:58:50.194Z,20.58
2022-12-25T13:01:26.757Z,7.25
2022-12-25T13:04:43.028Z,15.63
2022-12-25T13:07:43.112Z,24.45
2022-12-25T13:10:34.763Z,27.20
2022-12-25T13:13:19.657Z,23.10
2022-12-25T13:15:49.687Z,39.28
2022-12-25T13:18:17.790Z,23.10
2022-12-25T13:20:56.379Z,9.23
2022-12-25T13:23:34.381Z,6.63
2022-12-25T13:26:05.957Z,8.93
2022-12-25T13:28:35.895Z,4.68
2022-12-25T13:31:17.911Z,9.52
2022-12-25T13:33:57.358Z,8.43
2022-12-25T13:36:28.093Z,11.18
2022-12-25T13:38:58.668Z,6.45
2022-12-25T13:42:04.901Z,5.30
2022-12-25T13:44:55.453Z,5.22
2022-12-25T13:47:30.357Z,6.68
2022-12-25T13:50:00.200Z,9.48
2022-12-25T13:52:38.213Z,7.47
2022-12-25T13:55:20.615Z,4.28
2022-12-25T13:57:58.702Z,6.00
2022-12-25T14:00:36.545Z,14.93
2022-12-25T14:03:14.176Z,5.80
2022-12-25T14:05:43.458Z,12.57
2022-12-25T14:08:25.753Z,8.48
2022-12-25T14:10:54.633Z,8.27
2022-12-25T14:13:28.161Z,18.05
2022-12-25T14:15:57.248Z,11.45
2022-12-25T14:18:25.553Z,6.95
2022-12-25T14:20:58.686Z,8.25
2022-12-25T14:23:26.780Z,15.02
2022-12-25T14:25:54.131Z,10.00
2022-12-25T14:28:33.574Z,14.20
2022-12-25T14:31:02.387Z,7.95
2022-12-25T14:33:36.756Z,14.68
2022-12-25T14:36:06.050Z,12.43
2022-12-25T14:38:40.390Z,7.43
2022-12-25T14:41:32.770Z,7.63
2022-12-25T14:44:03.729Z,14.55
2022-12-25T14:46:33.664Z,8.40
2022-12-25T14:49:23.030Z,12.35
2022-12-25T14:54:21.858Z,12.50
2022-12-25T14:56:53.302Z,23.42
2022-12-25T14:59:25.428Z,13.60
2022-12-25T15:02:00.507Z,18.50
2022-12-25T15:04:29.185Z,24.25
2022-12-25T15:07:06.423Z,42.17
2022-12-25T15:09:35.389Z,38.00
2022-12-25T15:12:03.070Z,35.10
2022-12-25T15:14:30.949Z,22.60
2022-12-25T15:17:01.012Z,22.20
2022-12-25T15:19:37.674Z,19.52
2022-12-25T15:22:06.454Z,20.67
2022-12-25T15:24:33.646Z,28.58
2022-12-25T15:27:01.102Z,22.85
2022-12-25T15:32:19.744Z,26.00
2022-12-25T15:34:49.141Z,40.30
2022-12-25T15:39:45.596Z,40.27
2022-12-25T15:42:21.642Z,35.67
2022-12-25T15:44:48.976Z,40.90
2022-12-25T15:47:19.509Z,31.40
2022-12-25T15:49:46.704Z,37.20
2022-12-25T15:52:16.635Z,37.95
2022-12-25T15:54:44.095Z,29.25
2022-12-25T15:57:21.710Z,42.13
2022-12-25T15:59:48.898Z,42.25
2022-12-25T16:02:20.364Z,32.70
2022-12-25T16:04:50.370Z,42.17
2022-12-25T16:07:24.281Z,32.65
2022-12-25T16:09:52.042Z,31.33
2022-12-25T16:12:19.631Z,27.35
2022-12-25T16:14:46.755Z,33.72
2022-12-25T16:17:15.580Z,31.70
2022-12-25T16:19:44.130Z,28.98
2022-12-25T16:22:14.052Z,25.83
2022-12-25T16:24:41.350Z,36.08
2022-12-25T16:27:08.696Z,28.98
2022-12-25T16:29:35.991Z,32.60
2022-12-25T16:32:03.410Z,34.28
2022-12-25T16:34:30.580Z,31.60
2022-12-25T16:36:57.740Z,34.53
2022-12-25T16:39:24.878Z,22.17
2022-12-25T16:41:52.167Z,19.08
2022-12-25T16:44:19.458Z,23.85
2022-12-25T16:46:47.662Z,38.30
2022-12-25T16:49:14.952Z,40.70
2022-12-25T16:51:42.128Z,41.33
2022-12-25T16:54:09.318Z,31.63
2022-12-25T16:56:36.678Z,23.88
2022-12-25T16:59:03.942Z,28.20
2022-12-25T17:01:31.336Z,23.65
2022-12-25T17:04:02.388Z,30.15
2022-12-25T17:06:29.631Z,19.77
2022-12-25T17:08:59.536Z,18.45
2022-12-25T17:11:29.174Z,22.48
2022-12-25T17:14:01.940Z,23.33
2022-12-25T17:16:35.054Z,20.15
2022-12-25T17:19:19.027Z,15.00
2022-12-25T17:21:46.665Z,22.40
2022-12-25T17:24:15.066Z,16.10
2022-12-25T17:26:43.385Z,17.27
2022-12-25T17:29:17.241Z,17.25
2022-12-25T17:31:48.785Z,14.13
2022-12-25T17:34:16.096Z,15.75
2022-12-25T17:36:43.336Z,17.73
2022-12-25T17:39:11.281Z,25.13
2022-12-25T17:41:38.569Z,18.75
2022-12-25T17:44:05.775Z,29.65
2022-12-25T17:46:33.197Z,17.77
2022-12-25T17:49:01.057Z,34.88
2022-12-25T17:51:30.335Z,22.15
2022-12-25T17:54:03.959Z,23.48
2022-12-25T17:56:32.344Z,22.92
2022-12-25T17:59:05.941Z,31.83
2022-12-25T18:01:37.877Z,38.30
2022-12-25T18:04:06.410Z,30.25
2022-12-25T18:06:35.675Z,30.65
2022-12-25T18:09:05.561Z,31.23
2022-12-25T18:11:32.795Z,31.38
2022-12-25T18:14:05.017Z,40.42
2022-12-25T18:16:37.741Z,34.42
2022-12-25T18:19:05.872Z,30.42
2022-12-25T18:21:33.039Z,22.35
2022-12-25T18:24:03.917Z,32.03
2022-12-25T18:26:31.241Z,41.63
2022-12-25T18:28:59.590Z,32.33
2022-12-25T18:31:29.653Z,37.60
2022-12-25T18:33:59.149Z,35.70
2022-12-25T18:36:28.336Z,33.20
2022-12-25T18:38:57.179Z,27.58
2022-12-25T18:41:24.911Z,30.85
2022-12-25T18:43:55.567Z,31.17
2022-12-25T18:46:26.102Z,34.05
2022-12-25T18:48:55.776Z,30.38
2022-12-25T18:51:23.135Z,29.30
2022-12-25T18:53:51.166Z,30.17
2022-12-25T18:56:20.496Z,34.75
2022-12-25T18:58:47.983Z,46.30
2022-12-25T19:01:23.907Z,52.35
2022-12-25T19:03:53.937Z,44.95
2022-12-25T19:06:27.085Z,51.75
2022-12-25T19:08:55.243Z,50.33
2022-12-25T19:11:23.004Z,37.22
2022-12-25T19:13:50.321Z,26.27
2022-12-25T19:16:17.937Z,28.10
2022-12-25T19:18:45.834Z,25.50
2022-12-25T19:21:13.071Z,22.63
2022-12-25T19:23:40.348Z,30.35
2022-12-25T19:26:09.704Z,53.40
2022-12-25T19:28:38.491Z,67.60
2022-12-25T19:31:07.507Z,62.42
2022-12-25T19:33:37.890Z,66.18
2022-12-25T19:36:10.154Z,50.63
2022-12-25T19:38:37.660Z,47.88
2022-12-25T19:41:07.578Z,30.65
2022-12-25T19:43:38.468Z,26.73
2022-12-25T19:46:08.015Z,31.00
2022-12-25T19:48:35.716Z,36.03
2022-12-25T19:51:03.177Z,27.30
2022-12-25T19:53:31.867Z,27.45
2022-12-25T19:56:02.549Z,24.83
2022-12-25T19:58:29.836Z,26.48
2022-12-25T20:01:05.501Z,41.53
2022-12-25T20:03:38.753Z,46.55
2022-12-25T20:06:18.137Z,39.88
2022-12-25T20:08:47.354Z,40.47
2022-12-25T20:11:16.990Z,24.02
2022-12-25T20:16:11.786Z,21.33
2022-12-25T20:18:40.088Z,20.95
2022-12-25T20:21:17.624Z,25.63
2022-12-25T20:23:47.934Z,27.63
2022-12-25T20:26:17.833Z,36.75
2022-12-25T20:28:45.415Z,39.92
2022-12-25T20:31:17.497Z,37.25
2022-12-25T20:33:45.675Z,42.80
2022-12-25T20:36:17.789Z,43.53
2022-12-25T20:38:45.044Z,37.67
2022-12-25T20:41:31.456Z,44.60
2022-12-25T20:43:58.895Z,54.38
2022-12-25T20:46:28.612Z,52.03
2022-12-25T20:48:56.026Z,41.90
2022-12-25T20:51:26.268Z,41.35
2022-12-25T20:53:54.496Z,38.90
2022-12-25T20:56:25.627Z,34.38
2022-12-25T20:58:58.949Z,31.05
2022-12-25T21:01:29.499Z,35.60
2022-12-25T21:03:58.348Z,46.28
2022-12-25T21:06:30.576Z,53.33
2022-12-25T21:09:06.323Z,101.75
2022-12-25T21:11:44.381Z,79.32
2022-12-25T21:14:17.505Z,77.50
2022-12-25T21:16:44.849Z,60.60
2022-12-25T21:19:12.333Z,38.47
2022-12-25T21:21:42.150Z,63.47
2022-12-25T21:24:10.345Z,67.55
2022-12-25T21:26:40.751Z,77.90
2022-12-25T21:29:10.234Z,97.82
2022-12-25T21:31:56.353Z,160.02
2022-12-25T21:34:23.508Z,136.07
2022-12-25T21:36:50.755Z,86.70
2022-12-25T21:39:17.871Z,54.92
2022-12-25T21:41:45.186Z,39.22
2022-12-25T21:44:12.354Z,41.72
2022-12-25T21:46:39.602Z,52.85
2022-12-25T21:49:06.799Z,52.70
2022-12-25T21:51:53.087Z,53.40
2022-12-25T21:54:22.493Z,48.70
2022-12-25T21:56:50.442Z,52.25
2022-12-25T21:59:21.027Z,53.13
2022-12-25T22:01:49.947Z,56.20
2022-12-25T22:04:19.989Z,58.78
2022-12-25T22:07:06.135Z,64.07
2022-12-25T22:09:33.373Z,53.80
2022-12-25T22:12:19.474Z,60.42
2022-12-25T22:14:51.277Z,50.80
2022-12-25T22:17:43.579Z,53.53
2022-12-25T22:20:25.685Z,48.72
2022-12-25T22:22:53.639Z,66.43
2022-12-25T22:25:21.492Z,54.72
2022-12-25T22:27:49.899Z,69.80
2022-12-25T22:30:28.300Z,64.10
2022-12-25T22:32:56.163Z,51.00
2022-12-25T22:35:23.908Z,57.60
2022-12-25T22:37:52.758Z,46.67
2022-12-25T22:40:20.559Z,36.80
2022-12-25T22:42:47.834Z,18.15
2022-12-25T22:45:15.066Z,20.80
2022-12-25T22:47:42.268Z,26.52
2022-12-25T22:50:11.406Z,34.88
2022-12-25T22:52:38.509Z,34.00
2022-12-25T22:55:07.743Z,39.20
2022-12-25T22:57:36.163Z,45.92
2022-12-25T23:00:08.269Z,56.05
2022-12-25T23:02:35.675Z,52.30
2022-12-25T23:05:03.657Z,64.75
2022-12-25T23:07:30.852Z,63.70
2022-12-25T23:09:58.163Z,73.25
2022-12-25T23:12:44.132Z,104.53
2022-12-25T23:15:11.378Z,94.53
2022-12-25T23:17:57.340Z,75.35
2022-12-25T23:20:43.343Z,71.57
2022-12-25T23:23:34.326Z,77.40
2022-12-25T23:26:08.654Z,69.85
2022-12-25T23:28:57.516Z,78.78
2022-12-25T23:31:37.270Z,58.72
2022-12-25T23:34:05.947Z,44.65
2022-12-25T23:36:33.822Z,54.30
2022-12-25T23:39:08.528Z,42.22
2022-12-25T23:41:41.235Z,42.80
2022-12-25T23:44:10.448Z,51.30
2022-12-25T23:46:38.292Z,48.15
2022-12-25T23:49:06.260Z,52.17
2022-12-25T23:51:36.778Z,44.80
2022-12-25T23:54:05.953Z,41.72
2022-12-25T23:56:33.548Z,39.90
2022-12-25T23:59:00.859Z,49.90
